Time,TemperatureF,DewpointF,PressureIn,WindDirection,WindDirectionDegrees,WindSpeedMPH,WindSpeedGustMPH,Humidity,HourlyPrecipIn,Conditions,Clouds,dailyrainin,SolarRadiationWatts/m^2,SoftwareType,DateUTC
2013-02-21 00:01:00,53.0,30.0,-100.00,East,82,12.0,18.0,41,0.00,,,0.00,0.000000,,2013-02-21 10:01:00,
2013-02-21 00:11:00,53.0,30.0,-100.00,East,82,12.0,18.0,41,0.00,,,0.00,0.000000,,2013-02-21 10:11:00,
2013-02-21 00:21:00,53.0,30.0,-100.00,East,82,12.0,18.0,41,0.00,,,0.00,0.000000,,2013-02-21 10:21:00,
2013-02-21 00:31:00,53.0,30.0,-100.00,East,82,12.0,18.0,41,0.00,,,0.00,0.000000,,2013-02-21 10:31:00,
2013-02-21 00:51:00,53.0,27.0,-100.00,East,82,10.0,19.0,37,0.00,,,0.00,0.000000,,2013-02-21 10:51:00,
2013-02-21 01:01:00,53.0,27.0,-100.00,East,82,10.0,19.0,37,0.00,,,0.00,0.000000,,2013-02-21 11:01:00,
2013-02-21 01:11:00,53.0,27.0,-100.00,East,82,10.0,19.0,37,0.00,,,0.00,0.000000,,2013-02-21 11:11:00,
2013-02-21 01:21:00,53.0,27.0,-100.00,East,82,10.0,19.0,37,0.00,,,0.00,0.000000,,2013-02-21 11:21:00,
2013-02-21 01:31:00,53.0,27.0,-100.00,East,82,10.0,19.0,37,0.00,,,0.00,0.000000,,2013-02-21 11:31:00,
2013-02-21 01:52:00,53.0,25.0,-100.00,ENE,77,9.0,19.0,34,0.00,,,0.00,0.000000,,2013-02-21 11:52:00,
2013-02-21 02:01:00,53.0,25.0,-100.00,ENE,77,9.0,19.0,34,0.00,,,0.00,0.000000,,2013-02-21 12:01:00,
2013-02-21 02:11:00,53.0,25.0,-100.00,ENE,77,9.0,19.0,34,0.00,,,0.00,0.000000,,2013-02-21 12:11:00,
2013-02-21 02:21:00,53.0,25.0,-100.00,ENE,77,9.0,19.0,34,0.00,,,0.00,0.000000,,2013-02-21 12:21:00,
2013-02-21 02:32:00,53.0,25.0,-100.00,ENE,77,9.0,19.0,34,0.00,,,0.00,0.000000,,2013-02-21 12:32:00,
2013-02-21 02:52:00,52.0,26.0,-100.00,ENE,72,10.0,17.0,36,0.00,,,0.00,0.000000,,2013-02-21 12:52:00,
2013-02-21 03:01:00,52.0,26.0,-100.00,ENE,72,10.0,17.0,36,0.00,,,0.00,0.000000,,2013-02-21 13:01:00,
2013-02-21 03:12:00,52.0,26.0,-100.00,ENE,72,10.0,17.0,36,0.00,,,0.00,0.000000,,2013-02-21 13:12:00,
2013-02-21 03:22:00,52.0,26.0,-100.00,ENE,72,10.0,17.0,36,0.00,,,0.00,0.000000,,2013-02-21 13:22:00,
2013-02-21 03:31:00,52.0,26.0,-100.00,ENE,72,10.0,17.0,36,0.00,,,0.00,0.000000,,2013-02-21 13:31:00,
2013-02-21 03:52:00,50.0,25.0,-100.00,SSE,148,2.0,17.0,37,0.00,,,0.00,0.000000,,2013-02-21 13:52:00,
2013-02-21 04:02:00,50.0,25.0,-100.00,SSE,148,2.0,17.0,37,0.00,,,0.00,0.000000,,2013-02-21 14:02:00,
2013-02-21 04:11:00,50.0,25.0,-100.00,SSE,148,2.0,17.0,37,0.00,,,0.00,0.000000,,2013-02-21 14:11:00,
2013-02-21 04:21:00,50.0,25.0,-100.00,SSE,148,2.0,17.0,37,0.00,,,0.00,0.000000,,2013-02-21 14:21:00,
2013-02-21 04:31:00,50.0,25.0,-100.00,SSE,148,2.0,17.0,37,0.00,,,0.00,0.000000,,2013-02-21 14:31:00,
2013-02-21 04:52:00,50.0,26.0,-100.00,ENE,65,4.0,11.0,39,0.00,,,0.00,0.000000,,2013-02-21 14:52:00,
2013-02-21 05:01:00,50.0,26.0,-100.00,ENE,65,4.0,11.0,39,0.00,,,0.00,0.000000,,2013-02-21 15:01:00,
2013-02-21 05:12:00,50.0,26.0,-100.00,ENE,65,4.0,11.0,39,0.00,,,0.00,0.000000,,2013-02-21 15:12:00,
2013-02-21 05:21:00,50.0,26.0,-100.00,ENE,65,4.0,11.0,39,0.00,,,0.00,0.000000,,2013-02-21 15:21:00,
2013-02-21 05:31:00,50.0,26.0,-100.00,ENE,65,4.0,11.0,39,0.00,,,0.00,0.000000,,2013-02-21 15:31:00,
2013-02-21 05:52:00,50.0,29.0,-100.00,ESE,102,5.0,10.0,44,0.00,,,0.00,0.000000,,2013-02-21 15:52:00,
2013-02-21 06:01:00,50.0,29.0,-100.00,ESE,102,5.0,10.0,44,0.00,,,0.00,0.000000,,2013-02-21 16:01:00,
2013-02-21 06:12:00,50.0,29.0,-100.00,ESE,102,5.0,10.0,44,0.00,,,0.00,0.000000,,2013-02-21 16:12:00,
2013-02-21 06:21:00,50.0,29.0,-100.00,ESE,102,5.0,10.0,44,0.00,,,0.00,0.000000,,2013-02-21 16:21:00,
2013-02-21 06:31:00,50.0,29.0,-100.00,ESE,102,5.0,10.0,44,0.00,,,0.00,0.000000,,2013-02-21 16:31:00,
2013-02-21 06:52:00,50.0,25.0,-100.00,ENE,70,9.0,13.0,37,0.00,,,0.00,0.000000,,2013-02-21 16:52:00,
2013-02-21 07:01:00,50.0,25.0,-100.00,ENE,70,9.0,13.0,37,0.00,,,0.00,0.000000,,2013-02-21 17:01:00,
2013-02-21 07:11:00,50.0,25.0,-100.00,ENE,70,9.0,13.0,37,0.00,,,0.00,0.000000,,2013-02-21 17:11:00,
2013-02-21 07:21:00,50.0,25.0,-100.00,ENE,70,9.0,13.0,37,0.00,,,0.00,0.000000,,2013-02-21 17:21:00,
2013-02-21 07:32:00,50.0,25.0,-100.00,ENE,70,9.0,13.0,37,0.00,,,0.00,0.000000,,2013-02-21 17:32:00,
2013-02-21 07:52:00,53.0,27.0,-100.00,ENE,75,9.0,12.0,36,0.00,,,0.00,0.000000,,2013-02-21 17:52:00,
2013-02-21 08:01:00,53.0,27.0,-100.00,ENE,75,9.0,12.0,36,0.00,,,0.00,0.000000,,2013-02-21 18:01:00,
2013-02-21 08:11:00,53.0,27.0,-100.00,ENE,75,9.0,12.0,36,0.00,,,0.00,0.000000,,2013-02-21 18:11:00,
2013-02-21 08:22:00,53.0,27.0,-100.00,ENE,75,9.0,12.0,36,0.00,,,0.00,0.000000,,2013-02-21 18:22:00,
2013-02-21 08:31:00,53.0,27.0,-100.00,ENE,75,9.0,12.0,36,0.00,,,0.00,0.000000,,2013-02-21 18:31:00,
2013-02-21 08:52:00,62.0,27.0,-100.00,East,82,6.0,13.0,26,0.00,,,0.00,44.000000,,2013-02-21 18:52:00,
2013-02-21 09:01:00,62.0,27.0,-100.00,East,82,6.0,13.0,26,0.00,,,0.00,44.000000,,2013-02-21 19:01:00,
2013-02-21 09:11:00,62.0,27.0,-100.00,East,82,6.0,13.0,26,0.00,,,0.00,44.000000,,2013-02-21 19:11:00,
2013-02-21 09:21:00,62.0,27.0,-100.00,East,82,6.0,13.0,26,0.00,,,0.00,44.000000,,2013-02-21 19:21:00,
2013-02-21 09:31:00,62.0,27.0,-100.00,East,82,6.0,13.0,26,0.00,,,0.00,44.000000,,2013-02-21 19:31:00,
2013-02-21 09:52:00,64.0,35.0,-100.00,ESE,114,8.0,11.0,34,0.00,,,0.00,235.000000,,2013-02-21 19:52:00,
2013-02-21 10:01:00,64.0,35.0,-100.00,ESE,114,8.0,11.0,34,0.00,,,0.00,235.000000,,2013-02-21 20:01:00,
2013-02-21 10:11:00,64.0,35.0,-100.00,ESE,114,8.0,11.0,34,0.00,,,0.00,235.000000,,2013-02-21 20:11:00,
2013-02-21 10:21:00,64.0,35.0,-100.00,ESE,114,8.0,11.0,34,0.00,,,0.00,235.000000,,2013-02-21 20:21:00,
2013-02-21 10:31:00,64.0,35.0,-100.00,ESE,114,8.0,11.0,34,0.00,,,0.00,235.000000,,2013-02-21 20:31:00,
2013-02-21 10:53:00,66.0,47.0,-100.00,SW,221,5.0,14.0,51,0.00,,,0.00,798.000000,,2013-02-21 20:53:00,
2013-02-21 11:02:00,66.0,47.0,-100.00,SW,221,5.0,14.0,51,0.00,,,0.00,798.000000,,2013-02-21 21:02:00,
2013-02-21 11:11:00,66.0,47.0,-100.00,SW,221,5.0,14.0,51,0.00,,,0.00,798.000000,,2013-02-21 21:11:00,
2013-02-21 11:21:00,66.0,47.0,-100.00,SW,221,5.0,14.0,51,0.00,,,0.00,798.000000,,2013-02-21 21:21:00,
2013-02-21 11:31:00,66.0,47.0,-100.00,SW,221,5.0,14.0,51,0.00,,,0.00,798.000000,,2013-02-21 21:31:00,
2013-02-21 11:52:00,66.0,51.0,-100.00,SSW,207,6.0,17.0,59,0.00,,,0.00,965.000000,,2013-02-21 21:52:00,
2013-02-21 12:01:00,66.0,51.0,-100.00,SSW,207,6.0,17.0,59,0.00,,,0.00,965.000000,,2013-02-21 22:01:00,
2013-02-21 12:11:00,66.0,51.0,-100.00,SSW,207,6.0,17.0,59,0.00,,,0.00,965.000000,,2013-02-21 22:11:00,
2013-02-21 12:21:00,66.0,51.0,-100.00,SSW,207,6.0,17.0,59,0.00,,,0.00,965.000000,,2013-02-21 22:21:00,
2013-02-21 12:31:00,66.0,51.0,-100.00,SSW,207,6.0,17.0,59,0.00,,,0.00,965.000000,,2013-02-21 22:31:00,
2013-02-21 12:52:00,60.0,55.0,-100.00,West,261,3.0,17.0,84,0.00,,,0.00,366.000000,,2013-02-21 22:52:00,
2013-02-21 13:01:00,60.0,55.0,-100.00,West,261,3.0,17.0,84,0.00,,,0.00,366.000000,,2013-02-21 23:01:00,
2013-02-21 13:11:00,60.0,55.0,-100.00,West,261,3.0,17.0,84,0.00,,,0.00,366.000000,,2013-02-21 23:11:00,
2013-02-21 13:21:00,60.0,55.0,-100.00,West,261,3.0,17.0,84,0.00,,,0.00,366.000000,,2013-02-21 23:21:00,
2013-02-21 13:31:00,60.0,55.0,-100.00,West,261,3.0,17.0,84,0.00,,,0.00,366.000000,,2013-02-21 23:31:00,
2013-02-21 13:52:00,61.0,53.0,-100.00,WSW,256,4.0,12.0,75,0.00,,,0.00,268.000000,,2013-02-21 23:52:00,
2013-02-21 14:01:00,61.0,53.0,-100.00,WSW,256,4.0,12.0,75,0.00,,,0.00,268.000000,,2013-02-22 00:01:00,
2013-02-21 14:11:00,61.0,53.0,-100.00,WSW,256,4.0,12.0,75,0.00,,,0.00,268.000000,,2013-02-22 00:11:00,
2013-02-21 14:21:00,61.0,53.0,-100.00,WSW,256,4.0,12.0,75,0.00,,,0.00,268.000000,,2013-02-22 00:21:00,
2013-02-21 14:31:00,61.0,53.0,-100.00,WSW,256,4.0,12.0,75,0.00,,,0.00,268.000000,,2013-02-22 00:31:00,
2013-02-21 14:52:00,57.0,51.0,-100.00,WSW,242,7.0,13.0,80,0.00,,,0.00,129.000000,,2013-02-22 00:52:00,
2013-02-21 15:01:00,57.0,51.0,-100.00,WSW,242,7.0,13.0,80,0.00,,,0.00,129.000000,,2013-02-22 01:01:00,
2013-02-21 15:11:00,57.0,51.0,-100.00,WSW,242,7.0,13.0,80,0.00,,,0.00,129.000000,,2013-02-22 01:11:00,
2013-02-21 15:21:00,57.0,51.0,-100.00,WSW,242,7.0,13.0,80,0.00,,,0.00,129.000000,,2013-02-22 01:21:00,
2013-02-21 15:32:00,57.0,51.0,-100.00,WSW,242,7.0,13.0,80,0.00,,,0.00,129.000000,,2013-02-22 01:32:00,
2013-02-21 15:52:00,56.0,51.0,-100.00,ESE,123,0.0,11.0,82,0.00,,,0.00,145.000000,,2013-02-22 01:52:00,
2013-02-21 16:02:00,56.0,51.0,-100.00,ESE,123,0.0,11.0,82,0.00,,,0.00,145.000000,,2013-02-22 02:02:00,
2013-02-21 16:11:00,56.0,51.0,-100.00,ESE,123,0.0,11.0,82,0.00,,,0.00,145.000000,,2013-02-22 02:11:00,
2013-02-21 16:21:00,56.0,51.0,-100.00,ESE,123,0.0,11.0,82,0.00,,,0.00,145.000000,,2013-02-22 02:21:00,
2013-02-21 16:31:00,56.0,51.0,-100.00,ESE,123,0.0,11.0,82,0.00,,,0.00,145.000000,,2013-02-22 02:31:00,
2013-02-21 16:52:00,57.0,57.0,-100.00,WSW,258,3.0,7.0,99,0.00,,,0.00,214.000000,,2013-02-22 02:52:00,
2013-02-21 17:01:00,57.0,57.0,-100.00,WSW,258,3.0,7.0,99,0.00,,,0.00,214.000000,,2013-02-22 03:01:00,
2013-02-21 17:11:00,57.0,57.0,-100.00,WSW,258,3.0,7.0,99,0.00,,,0.00,214.000000,,2013-02-22 03:11:00,
2013-02-21 17:21:00,57.0,57.0,-100.00,WSW,258,3.0,7.0,99,0.00,,,0.00,214.000000,,2013-02-22 03:21:00,
2013-02-21 17:31:00,57.0,57.0,-100.00,WSW,258,3.0,7.0,99,0.00,,,0.00,214.000000,,2013-02-22 03:31:00,
2013-02-21 17:52:00,53.0,52.0,-100.00,NW,317,2.0,7.0,98,0.00,,,0.00,67.000000,,2013-02-22 03:52:00,
2013-02-21 18:01:00,53.0,52.0,-100.00,NW,317,2.0,7.0,98,0.00,,,0.00,67.000000,,2013-02-22 04:01:00,
2013-02-21 18:11:00,53.0,52.0,-100.00,NW,317,2.0,7.0,98,0.00,,,0.00,67.000000,,2013-02-22 04:11:00,
2013-02-21 18:21:00,53.0,52.0,-100.00,NW,317,2.0,7.0,98,0.00,,,0.00,67.000000,,2013-02-22 04:21:00,
2013-02-21 18:31:00,53.0,52.0,-100.00,NW,317,2.0,7.0,98,0.00,,,0.00,67.000000,,2013-02-22 04:31:00,
2013-02-21 18:52:00,51.0,50.0,-100.00,West,261,0.0,6.0,98,0.00,,,0.00,18.000000,,2013-02-22 04:52:00,
2013-02-21 19:01:00,51.0,50.0,-100.00,West,261,0.0,6.0,98,0.00,,,0.00,18.000000,,2013-02-22 05:01:00,
2013-02-21 19:11:00,51.0,50.0,-100.00,West,261,0.0,6.0,98,0.00,,,0.00,18.000000,,2013-02-22 05:11:00,
2013-02-21 19:22:00,51.0,50.0,-100.00,West,261,0.0,6.0,98,0.00,,,0.00,18.000000,,2013-02-22 05:22:00,
2013-02-21 19:32:00,51.0,50.0,-100.00,West,261,0.0,6.0,98,0.00,,,0.00,18.000000,,2013-02-22 05:32:00,
2013-02-21 19:52:00,52.0,45.0,-100.00,NNW,331,0.0,6.0,76,0.00,,,0.00,0.000000,,2013-02-22 05:52:00,
2013-02-21 20:01:00,52.0,45.0,-100.00,NNW,331,0.0,6.0,76,0.00,,,0.00,0.000000,,2013-02-22 06:01:00,
2013-02-21 20:11:00,52.0,45.0,-100.00,NNW,331,0.0,6.0,76,0.00,,,0.00,0.000000,,2013-02-22 06:11:00,
2013-02-21 20:21:00,52.0,45.0,-100.00,NNW,331,0.0,6.0,76,0.00,,,0.00,0.000000,,2013-02-22 06:21:00,
2013-02-21 20:31:00,52.0,45.0,-100.00,NNW,331,0.0,6.0,76,0.00,,,0.00,0.000000,,2013-02-22 06:31:00,
2013-02-21 20:52:00,55.0,37.0,-100.00,NE,52,0.0,6.0,50,0.00,,,0.00,0.000000,,2013-02-22 06:52:00,
2013-02-21 21:01:00,55.0,37.0,-100.00,NE,52,0.0,6.0,50,0.00,,,0.00,0.000000,,2013-02-22 07:01:00,
2013-02-21 21:11:00,55.0,37.0,-100.00,NE,52,0.0,6.0,50,0.00,,,0.00,0.000000,,2013-02-22 07:11:00,
2013-02-21 21:21:00,55.0,37.0,-100.00,NE,52,0.0,6.0,50,0.00,,,0.00,0.000000,,2013-02-22 07:21:00,
2013-02-21 21:31:00,55.0,37.0,-100.00,NE,52,0.0,6.0,50,0.00,,,0.00,0.000000,,2013-02-22 07:31:00,
2013-02-21 21:52:00,55.0,48.0,-100.00,ENE,59,9.0,9.0,76,0.00,,,0.00,0.000000,,2013-02-22 07:52:00,
2013-02-21 22:01:00,55.0,48.0,-100.00,ENE,59,9.0,9.0,76,0.00,,,0.00,0.000000,,2013-02-22 08:01:00,
2013-02-21 22:11:00,55.0,48.0,-100.00,ENE,59,9.0,9.0,76,0.00,,,0.00,0.000000,,2013-02-22 08:11:00,
2013-02-21 22:21:00,55.0,48.0,-100.00,ENE,59,9.0,9.0,76,0.00,,,0.00,0.000000,,2013-02-22 08:21:00,
2013-02-21 22:31:00,55.0,48.0,-100.00,ENE,59,9.0,9.0,76,0.00,,,0.00,0.000000,,2013-02-22 08:31:00,
2013-02-21 22:52:00,54.0,46.0,-100.00,East,79,14.0,24.0,75,0.00,,,0.00,0.000000,,2013-02-22 08:52:00,
2013-02-21 23:03:00,54.0,46.0,-100.00,East,79,14.0,24.0,75,0.00,,,0.00,0.000000,,2013-02-22 09:03:00,
2013-02-21 23:11:00,54.0,46.0,-100.00,East,79,14.0,24.0,75,0.00,,,0.00,0.000000,,2013-02-22 09:11:00,
2013-02-21 23:21:00,54.0,46.0,-100.00,East,79,14.0,24.0,75,0.00,,,0.00,0.000000,,2013-02-22 09:21:00,
2013-02-21 23:31:00,54.0,46.0,-100.00,East,79,14.0,24.0,75,0.00,,,0.00,0.000000,,2013-02-22 09:31:00,
2013-02-21 23:52:00,54.0,47.0,-100.00,East,81,13.0,24.0,76,0.00,,,0.00,0.000000,,2013-02-22 09:52:00,